sensor_id;sensor_type;location;lat;lon;timestamp;P1;durP1;ratioP1;P2;durP2;ratioP2
55031;SDS011;40928;51.076;7.950;2023-05-07T00:00:59;6.53;;;0.80;;
55031;SDS011;40928;51.076;7.950;2023-05-07T00:03:25;0.85;;;0.70;;
55031;SDS011;40928;51.076;7.950;2023-05-07T00:05:51;3.17;;;0.90;;
55031;SDS011;40928;51.076;7.950;2023-05-07T00:08:18;2.33;;;1.25;;
55031;SDS011;40928;51.076;7.950;2023-05-07T00:10:44;2.75;;;1.15;;
55031;SDS011;40928;51.076;7.950;2023-05-07T00:13:09;7.88;;;1.75;;
55031;SDS011;40928;51.076;7.950;2023-05-07T00:15:35;3.78;;;1.70;;
55031;SDS011;40928;51.076;7.950;2023-05-07T00:18:00;3.75;;;1.30;;
55031;SDS011;40928;51.076;7.950;2023-05-07T00:20:26;1.75;;;1.17;;
55031;SDS011;40928;51.076;7.950;2023-05-07T00:22:51;2.50;;;1.13;;
55031;SDS011;40928;51.076;7.950;2023-05-07T00:25:17;1.38;;;1.00;;
55031;SDS011;40928;51.076;7.950;2023-05-07T00:27:44;2.58;;;1.00;;
55031;SDS011;40928;51.076;7.950;2023-05-07T00:30:10;1.42;;;0.90;;
55031;SDS011;40928;51.076;7.950;2023-05-07T00:32:36;2.20;;;0.77;;
55031;SDS011;40928;51.076;7.950;2023-05-07T00:35:03;1.80;;;0.70;;
55031;SDS011;40928;51.076;7.950;2023-05-07T00:37:29;0.98;;;0.70;;
55031;SDS011;40928;51.076;7.950;2023-05-07T00:39:55;1.30;;;0.98;;
55031;SDS011;40928;51.076;7.950;2023-05-07T00:42:20;2.67;;;0.90;;
55031;SDS011;40928;51.076;7.950;2023-05-07T00:44:46;1.77;;;0.82;;
55031;SDS011;40928;51.076;7.950;2023-05-07T00:47:12;1.73;;;0.90;;
55031;SDS011;40928;51.076;7.950;2023-05-07T00:49:39;4.63;;;1.00;;
55031;SDS011;40928;51.076;7.950;2023-05-07T00:52:07;1.67;;;1.00;;
55031;SDS011;40928;51.076;7.950;2023-05-07T00:54:36;1.27;;;0.88;;
55031;SDS011;40928;51.076;7.950;2023-05-07T00:57:02;1.65;;;0.90;;
55031;SDS011;40928;51.076;7.950;2023-05-07T00:59:29;1.55;;;0.80;;
55031;SDS011;40928;51.076;7.950;2023-05-07T01:01:56;1.42;;;0.90;;
55031;SDS011;40928;51.076;7.950;2023-05-07T01:04:23;1.70;;;1.08;;
55031;SDS011;40928;51.076;7.950;2023-05-07T01:06:49;4.03;;;0.90;;
55031;SDS011;40928;51.076;7.950;2023-05-07T01:09:15;2.85;;;0.98;;
55031;SDS011;40928;51.076;7.950;2023-05-07T01:11:41;2.97;;;1.02;;
55031;SDS011;40928;51.076;7.950;2023-05-07T01:14:08;1.83;;;1.20;;
55031;SDS011;40928;51.076;7.950;2023-05-07T01:16:36;1.52;;;1.00;;
55031;SDS011;40928;51.076;7.950;2023-05-07T01:19:02;2.83;;;1.00;;
55031;SDS011;40928;51.076;7.950;2023-05-07T01:21:28;2.55;;;0.80;;
55031;SDS011;40928;51.076;7.950;2023-05-07T01:23:58;0.93;;;0.73;;
55031;SDS011;40928;51.076;7.950;2023-05-07T01:26:24;3.45;;;0.82;;
55031;SDS011;40928;51.076;7.950;2023-05-07T01:28:50;1.20;;;0.65;;
55031;SDS011;40928;51.076;7.950;2023-05-07T01:31:16;4.43;;;0.90;;
55031;SDS011;40928;51.076;7.950;2023-05-07T01:33:43;2.08;;;0.88;;
55031;SDS011;40928;51.076;7.950;2023-05-07T01:36:11;3.63;;;1.13;;
55031;SDS011;40928;51.076;7.950;2023-05-07T01:38:39;2.28;;;0.95;;
55031;SDS011;40928;51.076;7.950;2023-05-07T01:41:06;2.75;;;0.77;;
55031;SDS011;40928;51.076;7.950;2023-05-07T01:43:33;1.38;;;0.80;;
55031;SDS011;40928;51.076;7.950;2023-05-07T01:45:59;1.05;;;0.70;;
55031;SDS011;40928;51.076;7.950;2023-05-07T01:48:27;1.70;;;1.15;;
55031;SDS011;40928;51.076;7.950;2023-05-07T01:50:53;2.95;;;0.57;;
55031;SDS011;40928;51.076;7.950;2023-05-07T01:53:20;2.38;;;0.75;;
55031;SDS011;40928;51.076;7.950;2023-05-07T01:55:45;1.27;;;0.70;;
55031;SDS011;40928;51.076;7.950;2023-05-07T01:58:11;1.77;;;0.80;;
55031;SDS011;40928;51.076;7.950;2023-05-07T02:00:37;1.10;;;0.65;;
55031;SDS011;40928;51.076;7.950;2023-05-07T02:03:03;1.48;;;1.05;;
55031;SDS011;40928;51.076;7.950;2023-05-07T02:05:50;1.55;;;0.80;;
55031;SDS011;40928;51.076;7.950;2023-05-07T02:08:36;0.70;;;0.68;;
55031;SDS011;40928;51.076;7.950;2023-05-07T02:11:02;1.95;;;1.05;;
55031;SDS011;40928;51.076;7.950;2023-05-07T02:13:29;1.05;;;0.73;;
55031;SDS011;40928;51.076;7.950;2023-05-07T02:15:57;1.02;;;0.70;;
55031;SDS011;40928;51.076;7.950;2023-05-07T02:18:24;2.05;;;1.02;;
55031;SDS011;40928;51.076;7.950;2023-05-07T02:20:50;1.58;;;0.93;;
55031;SDS011;40928;51.076;7.950;2023-05-07T02:23:15;1.80;;;1.20;;
55031;SDS011;40928;51.076;7.950;2023-05-07T02:25:41;3.22;;;0.82;;
55031;SDS011;40928;51.076;7.950;2023-05-07T02:28:06;0.85;;;0.70;;
55031;SDS011;40928;51.076;7.950;2023-05-07T02:30:42;1.98;;;0.95;;
55031;SDS011;40928;51.076;7.950;2023-05-07T02:33:08;1.60;;;0.98;;
55031;SDS011;40928;51.076;7.950;2023-05-07T02:35:34;4.30;;;0.90;;
55031;SDS011;40928;51.076;7.950;2023-05-07T02:38:00;1.33;;;0.75;;
55031;SDS011;40928;51.076;7.950;2023-05-07T02:40:26;4.72;;;1.00;;
55031;SDS011;40928;51.076;7.950;2023-05-07T02:42:51;4.05;;;0.98;;
55031;SDS011;40928;51.076;7.950;2023-05-07T02:45:17;2.15;;;1.02;;
55031;SDS011;40928;51.076;7.950;2023-05-07T02:47:44;2.80;;;0.85;;
55031;SDS011;40928;51.076;7.950;2023-05-07T02:50:10;1.27;;;0.65;;
55031;SDS011;40928;51.076;7.950;2023-05-07T02:52:36;1.60;;;0.90;;
55031;SDS011;40928;51.076;7.950;2023-05-07T02:55:01;2.70;;;0.68;;
55031;SDS011;40928;51.076;7.950;2023-05-07T02:57:27;1.70;;;0.80;;
55031;SDS011;40928;51.076;7.950;2023-05-07T02:59:53;1.70;;;0.93;;
55031;SDS011;40928;51.076;7.950;2023-05-07T03:02:20;1.25;;;0.70;;
55031;SDS011;40928;51.076;7.950;2023-05-07T03:04:46;0.80;;;0.60;;
55031;SDS011;40928;51.076;7.950;2023-05-07T03:07:11;4.35;;;0.70;;
55031;SDS011;40928;51.076;7.950;2023-05-07T03:09:37;1.38;;;0.95;;
55031;SDS011;40928;51.076;7.950;2023-05-07T03:12:03;1.25;;;0.80;;
55031;SDS011;40928;51.076;7.950;2023-05-07T03:14:29;5.82;;;1.20;;
55031;SDS011;40928;51.076;7.950;2023-05-07T03:16:55;1.60;;;0.95;;
55031;SDS011;40928;51.076;7.950;2023-05-07T03:19:20;1.48;;;0.75;;
55031;SDS011;40928;51.076;7.950;2023-05-07T03:21:46;2.08;;;0.85;;
55031;SDS011;40928;51.076;7.950;2023-05-07T03:24:12;1.83;;;0.80;;
55031;SDS011;40928;51.076;7.950;2023-05-07T03:26:37;1.48;;;0.90;;
55031;SDS011;40928;51.076;7.950;2023-05-07T03:29:03;1.40;;;0.77;;
55031;SDS011;40928;51.076;7.950;2023-05-07T03:31:29;1.67;;;0.93;;
55031;SDS011;40928;51.076;7.950;2023-05-07T03:33:56;1.30;;;0.80;;
55031;SDS011;40928;51.076;7.950;2023-05-07T03:36:23;1.85;;;0.93;;
55031;SDS011;40928;51.076;7.950;2023-05-07T03:38:49;1.25;;;0.70;;
55031;SDS011;40928;51.076;7.950;2023-05-07T03:41:18;0.98;;;0.70;;
55031;SDS011;40928;51.076;7.950;2023-05-07T03:43:45;0.88;;;0.75;;
55031;SDS011;40928;51.076;7.950;2023-05-07T03:46:11;2.90;;;1.10;;
55031;SDS011;40928;51.076;7.950;2023-05-07T03:48:37;1.95;;;0.98;;
55031;SDS011;40928;51.076;7.950;2023-05-07T03:51:03;1.90;;;0.95;;
55031;SDS011;40928;51.076;7.950;2023-05-07T03:53:31;1.70;;;1.10;;
55031;SDS011;40928;51.076;7.950;2023-05-07T03:55:57;1.55;;;0.93;;
55031;SDS011;40928;51.076;7.950;2023-05-07T03:58:23;1.77;;;0.90;;
55031;SDS011;40928;51.076;7.950;2023-05-07T04:00:49;3.45;;;1.20;;
55031;SDS011;40928;51.076;7.950;2023-05-07T04:03:23;1.00;;;0.80;;
55031;SDS011;40928;51.076;7.950;2023-05-07T04:05:50;1.35;;;1.25;;
55031;SDS011;40928;51.076;7.950;2023-05-07T04:08:15;1.40;;;0.77;;
55031;SDS011;40928;51.076;7.950;2023-05-07T04:10:45;1.98;;;1.10;;
55031;SDS011;40928;51.076;7.950;2023-05-07T04:13:11;1.20;;;0.98;;
55031;SDS011;40928;51.076;7.950;2023-05-07T04:15:38;4.13;;;1.23;;
55031;SDS011;40928;51.076;7.950;2023-05-07T04:18:07;3.72;;;1.00;;
55031;SDS011;40928;51.076;7.950;2023-05-07T04:20:34;2.55;;;0.80;;
55031;SDS011;40928;51.076;7.950;2023-05-07T04:23:02;1.27;;;0.98;;
55031;SDS011;40928;51.076;7.950;2023-05-07T04:25:28;2.88;;;0.90;;
55031;SDS011;40928;51.076;7.950;2023-05-07T04:28:01;1.02;;;0.80;;
55031;SDS011;40928;51.076;7.950;2023-05-07T04:30:28;2.60;;;1.10;;
55031;SDS011;40928;51.076;7.950;2023-05-07T04:32:53;1.63;;;0.93;;
55031;SDS011;40928;51.076;7.950;2023-05-07T04:35:21;2.17;;;0.85;;
55031;SDS011;40928;51.076;7.950;2023-05-07T04:37:47;1.58;;;1.10;;
55031;SDS011;40928;51.076;7.950;2023-05-07T04:40:13;4.50;;;1.50;;
55031;SDS011;40928;51.076;7.950;2023-05-07T04:42:39;1.98;;;1.10;;
55031;SDS011;40928;51.076;7.950;2023-05-07T04:45:05;1.98;;;0.98;;
55031;SDS011;40928;51.076;7.950;2023-05-07T04:47:34;3.65;;;1.17;;
55031;SDS011;40928;51.076;7.950;2023-05-07T04:50:01;3.85;;;1.20;;
55031;SDS011;40928;51.076;7.950;2023-05-07T04:52:26;1.95;;;1.10;;
55031;SDS011;40928;51.076;7.950;2023-05-07T04:54:52;1.77;;;1.20;;
55031;SDS011;40928;51.076;7.950;2023-05-07T04:57:18;1.27;;;1.08;;
55031;SDS011;40928;51.076;7.950;2023-05-07T04:59:43;3.08;;;1.23;;
55031;SDS011;40928;51.076;7.950;2023-05-07T05:02:10;2.45;;;1.05;;
55031;SDS011;40928;51.076;7.950;2023-05-07T05:04:36;4.85;;;1.20;;
55031;SDS011;40928;51.076;7.950;2023-05-07T05:07:02;2.35;;;1.20;;
55031;SDS011;40928;51.076;7.950;2023-05-07T05:09:31;1.40;;;1.23;;
55031;SDS011;40928;51.076;7.950;2023-05-07T05:11:56;4.10;;;1.90;;
55031;SDS011;40928;51.076;7.950;2023-05-07T05:14:22;6.85;;;3.55;;
55031;SDS011;40928;51.076;7.950;2023-05-07T05:16:49;5.65;;;2.72;;
55031;SDS011;40928;51.076;7.950;2023-05-07T05:19:14;3.40;;;2.33;;
55031;SDS011;40928;51.076;7.950;2023-05-07T05:21:40;4.35;;;2.70;;
55031;SDS011;40928;51.076;7.950;2023-05-07T05:24:08;2.05;;;1.17;;
55031;SDS011;40928;51.076;7.950;2023-05-07T05:26:34;1.35;;;1.10;;
55031;SDS011;40928;51.076;7.950;2023-05-07T05:29:00;1.73;;;1.25;;
55031;SDS011;40928;51.076;7.950;2023-05-07T05:31:29;3.08;;;1.00;;
55031;SDS011;40928;51.076;7.950;2023-05-07T05:33:54;2.10;;;1.30;;
55031;SDS011;40928;51.076;7.950;2023-05-07T05:36:20;2.03;;;1.00;;
55031;SDS011;40928;51.076;7.950;2023-05-07T05:38:48;2.58;;;1.35;;
55031;SDS011;40928;51.076;7.950;2023-05-07T05:41:13;2.22;;;1.38;;
55031;SDS011;40928;51.076;7.950;2023-05-07T05:43:39;2.33;;;1.10;;
55031;SDS011;40928;51.076;7.950;2023-05-07T05:46:05;1.25;;;0.85;;
55031;SDS011;40928;51.076;7.950;2023-05-07T05:48:31;1.83;;;1.15;;
55031;SDS011;40928;51.076;7.950;2023-05-07T05:50:59;1.98;;;1.35;;
55031;SDS011;40928;51.076;7.950;2023-05-07T05:53:25;1.63;;;1.27;;
55031;SDS011;40928;51.076;7.950;2023-05-07T05:55:50;2.38;;;1.30;;
55031;SDS011;40928;51.076;7.950;2023-05-07T05:58:17;9.63;;;6.55;;
55031;SDS011;40928;51.076;7.950;2023-05-07T06:00:49;7.50;;;4.85;;
55031;SDS011;40928;51.076;7.950;2023-05-07T06:03:17;4.15;;;2.03;;
55031;SDS011;40928;51.076;7.950;2023-05-07T06:05:43;5.45;;;2.20;;
55031;SDS011;40928;51.076;7.950;2023-05-07T06:08:09;1.83;;;1.30;;
55031;SDS011;40928;51.076;7.950;2023-05-07T06:10:35;2.05;;;1.30;;
55031;SDS011;40928;51.076;7.950;2023-05-07T06:13:03;2.17;;;1.35;;
55031;SDS011;40928;51.076;7.950;2023-05-07T06:15:31;1.65;;;1.23;;
55031;SDS011;40928;51.076;7.950;2023-05-07T06:18:02;3.05;;;1.23;;
55031;SDS011;40928;51.076;7.950;2023-05-07T06:20:27;1.75;;;1.25;;
55031;SDS011;40928;51.076;7.950;2023-05-07T06:22:53;2.70;;;1.40;;
55031;SDS011;40928;51.076;7.950;2023-05-07T06:25:20;1.67;;;1.17;;
55031;SDS011;40928;51.076;7.950;2023-05-07T06:27:45;1.42;;;1.13;;
55031;SDS011;40928;51.076;7.950;2023-05-07T06:30:11;3.33;;;1.70;;
55031;SDS011;40928;51.076;7.950;2023-05-07T06:32:37;2.85;;;1.23;;
55031;SDS011;40928;51.076;7.950;2023-05-07T06:35:02;2.95;;;1.60;;
55031;SDS011;40928;51.076;7.950;2023-05-07T06:37:28;2.22;;;1.70;;
55031;SDS011;40928;51.076;7.950;2023-05-07T06:40:01;3.53;;;1.58;;
55031;SDS011;40928;51.076;7.950;2023-05-07T06:42:28;1.92;;;1.25;;
55031;SDS011;40928;51.076;7.950;2023-05-07T06:44:58;4.47;;;1.17;;
55031;SDS011;40928;51.076;7.950;2023-05-07T06:47:24;4.18;;;1.60;;
55031;SDS011;40928;51.076;7.950;2023-05-07T06:49:53;2.08;;;1.30;;
55031;SDS011;40928;51.076;7.950;2023-05-07T06:52:21;1.42;;;1.10;;
55031;SDS011;40928;51.076;7.950;2023-05-07T06:54:49;1.98;;;1.33;;
55031;SDS011;40928;51.076;7.950;2023-05-07T06:57:16;3.40;;;1.60;;
55031;SDS011;40928;51.076;7.950;2023-05-07T06:59:42;2.08;;;1.20;;
55031;SDS011;40928;51.076;7.950;2023-05-07T07:02:07;2.03;;;1.30;;
55031;SDS011;40928;51.076;7.950;2023-05-07T07:04:34;1.70;;;1.35;;
55031;SDS011;40928;51.076;7.950;2023-05-07T07:07:04;4.40;;;1.48;;
55031;SDS011;40928;51.076;7.950;2023-05-07T07:09:30;2.22;;;1.45;;
55031;SDS011;40928;51.076;7.950;2023-05-07T07:11:57;1.80;;;1.42;;
55031;SDS011;40928;51.076;7.950;2023-05-07T07:14:23;4.82;;;1.60;;
55031;SDS011;40928;51.076;7.950;2023-05-07T07:16:51;2.72;;;1.35;;
55031;SDS011;40928;51.076;7.950;2023-05-07T07:19:18;4.38;;;1.40;;
55031;SDS011;40928;51.076;7.950;2023-05-07T07:21:47;1.80;;;1.40;;
55031;SDS011;40928;51.076;7.950;2023-05-07T07:24:13;1.50;;;1.30;;
55031;SDS011;40928;51.076;7.950;2023-05-07T07:26:45;3.08;;;1.60;;
55031;SDS011;40928;51.076;7.950;2023-05-07T07:29:12;3.70;;;1.73;;
55031;SDS011;40928;51.076;7.950;2023-05-07T07:31:40;2.33;;;1.63;;
55031;SDS011;40928;51.076;7.950;2023-05-07T07:34:12;2.85;;;1.60;;
55031;SDS011;40928;51.076;7.950;2023-05-07T07:36:38;3.72;;;1.48;;
55031;SDS011;40928;51.076;7.950;2023-05-07T07:39:03;2.22;;;1.45;;
55031;SDS011;40928;51.076;7.950;2023-05-07T07:41:29;2.58;;;1.83;;
55031;SDS011;40928;51.076;7.950;2023-05-07T07:43:55;5.03;;;1.33;;
55031;SDS011;40928;51.076;7.950;2023-05-07T07:46:20;2.45;;;1.48;;
55031;SDS011;40928;51.076;7.950;2023-05-07T07:48:46;3.95;;;2.00;;
55031;SDS011;40928;51.076;7.950;2023-05-07T07:51:12;3.90;;;1.60;;
55031;SDS011;40928;51.076;7.950;2023-05-07T07:53:38;2.63;;;1.10;;
55031;SDS011;40928;51.076;7.950;2023-05-07T07:56:04;3.25;;;1.50;;
55031;SDS011;40928;51.076;7.950;2023-05-07T07:58:32;2.40;;;1.20;;
55031;SDS011;40928;51.076;7.950;2023-05-07T08:00:58;2.60;;;1.05;;
55031;SDS011;40928;51.076;7.950;2023-05-07T08:03:24;2.28;;;1.23;;
55031;SDS011;40928;51.076;7.950;2023-05-07T08:05:55;3.58;;;1.20;;
55031;SDS011;40928;51.076;7.950;2023-05-07T08:08:21;3.00;;;1.35;;
55031;SDS011;40928;51.076;7.950;2023-05-07T08:10:47;2.97;;;1.67;;
55031;SDS011;40928;51.076;7.950;2023-05-07T08:13:22;3.75;;;1.55;;
55031;SDS011;40928;51.076;7.950;2023-05-07T08:15:48;3.03;;;1.33;;
55031;SDS011;40928;51.076;7.950;2023-05-07T08:18:14;2.22;;;1.40;;
55031;SDS011;40928;51.076;7.950;2023-05-07T08:20:41;4.43;;;1.70;;
55031;SDS011;40928;51.076;7.950;2023-05-07T08:23:12;2.30;;;1.60;;
55031;SDS011;40928;51.076;7.950;2023-05-07T08:25:39;4.05;;;1.75;;
55031;SDS011;40928;51.076;7.950;2023-05-07T08:28:15;2.88;;;1.48;;
55031;SDS011;40928;51.076;7.950;2023-05-07T08:30:57;1.80;;;1.50;;
55031;SDS011;40928;51.076;7.950;2023-05-07T08:33:37;2.03;;;1.55;;
55031;SDS011;40928;51.076;7.950;2023-05-07T08:36:04;3.55;;;1.30;;
55031;SDS011;40928;51.076;7.950;2023-05-07T08:38:31;7.03;;;1.60;;
55031;SDS011;40928;51.076;7.950;2023-05-07T08:40:57;2.90;;;1.38;;
55031;SDS011;40928;51.076;7.950;2023-05-07T08:43:25;4.97;;;1.98;;
55031;SDS011;40928;51.076;7.950;2023-05-07T08:45:53;2.40;;;1.83;;
55031;SDS011;40928;51.076;7.950;2023-05-07T08:48:22;1.70;;;1.35;;
55031;SDS011;40928;51.076;7.950;2023-05-07T08:50:57;1.88;;;1.38;;
55031;SDS011;40928;51.076;7.950;2023-05-07T08:53:25;3.30;;;1.83;;
55031;SDS011;40928;51.076;7.950;2023-05-07T08:55:51;5.30;;;2.85;;
55031;SDS011;40928;51.076;7.950;2023-05-07T08:58:18;6.45;;;2.42;;
55031;SDS011;40928;51.076;7.950;2023-05-07T09:00:44;3.10;;;2.35;;
55031;SDS011;40928;51.076;7.950;2023-05-07T09:03:12;1.67;;;1.02;;
55031;SDS011;40928;51.076;7.950;2023-05-07T09:05:41;18.15;;;10.98;;
55031;SDS011;40928;51.076;7.950;2023-05-07T09:08:14;13.15;;;9.65;;
55031;SDS011;40928;51.076;7.950;2023-05-07T09:10:40;4.43;;;2.00;;
55031;SDS011;40928;51.076;7.950;2023-05-07T09:13:06;1.75;;;1.27;;
55031;SDS011;40928;51.076;7.950;2023-05-07T09:15:33;5.03;;;1.63;;
55031;SDS011;40928;51.076;7.950;2023-05-07T09:17:59;4.82;;;1.73;;
55031;SDS011;40928;51.076;7.950;2023-05-07T09:20:32;10.38;;;2.47;;
55031;SDS011;40928;51.076;7.950;2023-05-07T09:23:01;3.22;;;1.60;;
55031;SDS011;40928;51.076;7.950;2023-05-07T09:25:28;3.35;;;1.58;;
55031;SDS011;40928;51.076;7.950;2023-05-07T09:28:03;2.60;;;1.38;;
55031;SDS011;40928;51.076;7.950;2023-05-07T09:30:31;4.20;;;1.80;;
55031;SDS011;40928;51.076;7.950;2023-05-07T09:32:59;1.52;;;1.10;;
55031;SDS011;40928;51.076;7.950;2023-05-07T09:35:26;4.45;;;1.60;;
55031;SDS011;40928;51.076;7.950;2023-05-07T09:37:57;4.07;;;2.60;;
55031;SDS011;40928;51.076;7.950;2023-05-07T09:40:27;3.47;;;2.45;;
55031;SDS011;40928;51.076;7.950;2023-05-07T09:43:07;3.95;;;1.30;;
55031;SDS011;40928;51.076;7.950;2023-05-07T09:45:34;3.13;;;1.90;;
55031;SDS011;40928;51.076;7.950;2023-05-07T09:48:01;2.67;;;1.42;;
55031;SDS011;40928;51.076;7.950;2023-05-07T09:50:36;2.47;;;1.33;;
55031;SDS011;40928;51.076;7.950;2023-05-07T09:53:05;3.28;;;1.48;;
55031;SDS011;40928;51.076;7.950;2023-05-07T09:55:32;4.88;;;1.70;;
55031;SDS011;40928;51.076;7.950;2023-05-07T09:57:59;1.50;;;1.08;;
55031;SDS011;40928;51.076;7.950;2023-05-07T10:00:27;1.33;;;1.23;;
55031;SDS011;40928;51.076;7.950;2023-05-07T10:03:01;2.55;;;1.02;;
55031;SDS011;40928;51.076;7.950;2023-05-07T10:05:38;3.45;;;1.70;;
55031;SDS011;40928;51.076;7.950;2023-05-07T10:08:05;1.90;;;1.30;;
55031;SDS011;40928;51.076;7.950;2023-05-07T10:10:35;2.42;;;1.10;;
55031;SDS011;40928;51.076;7.950;2023-05-07T10:13:02;2.63;;;1.75;;
55031;SDS011;40928;51.076;7.950;2023-05-07T10:15:32;2.80;;;1.35;;
55031;SDS011;40928;51.076;7.950;2023-05-07T10:18:01;3.17;;;1.83;;
55031;SDS011;40928;51.076;7.950;2023-05-07T10:20:32;2.78;;;1.98;;
55031;SDS011;40928;51.076;7.950;2023-05-07T10:23:02;1.48;;;0.93;;
55031;SDS011;40928;51.076;7.950;2023-05-07T10:25:35;1.48;;;0.88;;
55031;SDS011;40928;51.076;7.950;2023-05-07T10:28:07;2.88;;;1.27;;
55031;SDS011;40928;51.076;7.950;2023-05-07T10:33:38;2.05;;;0.75;;
55031;SDS011;40928;51.076;7.950;2023-05-07T10:36:05;2.22;;;1.35;;
55031;SDS011;40928;51.076;7.950;2023-05-07T10:38:33;1.85;;;1.00;;
55031;SDS011;40928;51.076;7.950;2023-05-07T10:41:00;4.50;;;1.08;;
55031;SDS011;40928;51.076;7.950;2023-05-07T10:43:41;1.30;;;1.13;;
55031;SDS011;40928;51.076;7.950;2023-05-07T10:51:36;2.17;;;1.30;;
55031;SDS011;40928;51.076;7.950;2023-05-07T10:56:49;1.98;;;0.93;;
55031;SDS011;40928;51.076;7.950;2023-05-07T11:01:56;1.73;;;1.20;;
55031;SDS011;40928;51.076;7.950;2023-05-07T11:08:08;2.78;;;1.00;;
55031;SDS011;40928;51.076;7.950;2023-05-07T11:16:22;2.05;;;1.42;;
55031;SDS011;40928;51.076;7.950;2023-05-07T11:18:55;2.65;;;1.33;;
55031;SDS011;40928;51.076;7.950;2023-05-07T11:21:40;2.47;;;1.90;;
55031;SDS011;40928;51.076;7.950;2023-05-07T11:24:25;4.53;;;1.40;;
55031;SDS011;40928;51.076;7.950;2023-05-07T11:26:55;2.55;;;1.25;;
55031;SDS011;40928;51.076;7.950;2023-05-07T11:29:23;2.08;;;1.10;;
55031;SDS011;40928;51.076;7.950;2023-05-07T11:31:55;1.65;;;1.20;;
55031;SDS011;40928;51.076;7.950;2023-05-07T11:34:26;2.65;;;1.30;;
55031;SDS011;40928;51.076;7.950;2023-05-07T11:36:54;2.42;;;1.42;;
55031;SDS011;40928;51.076;7.950;2023-05-07T11:39:31;2.22;;;1.27;;
55031;SDS011;40928;51.076;7.950;2023-05-07T11:42:01;4.43;;;1.60;;
55031;SDS011;40928;51.076;7.950;2023-05-07T11:47:25;4.00;;;1.77;;
55031;SDS011;40928;51.076;7.950;2023-05-07T11:49:52;6.18;;;2.00;;
55031;SDS011;40928;51.076;7.950;2023-05-07T11:52:19;2.72;;;1.80;;
55031;SDS011;40928;51.076;7.950;2023-05-07T11:54:55;2.72;;;1.73;;
55031;SDS011;40928;51.076;7.950;2023-05-07T11:57:25;4.32;;;1.73;;
55031;SDS011;40928;51.076;7.950;2023-05-07T11:59:56;2.63;;;2.15;;
55031;SDS011;40928;51.076;7.950;2023-05-07T12:02:37;3.20;;;1.45;;
55031;SDS011;40928;51.076;7.950;2023-05-07T12:05:04;3.80;;;1.80;;
55031;SDS011;40928;51.076;7.950;2023-05-07T12:07:30;3.75;;;2.03;;
55031;SDS011;40928;51.076;7.950;2023-05-07T12:09:58;6.38;;;2.13;;
55031;SDS011;40928;51.076;7.950;2023-05-07T12:12:24;3.17;;;1.90;;
55031;SDS011;40928;51.076;7.950;2023-05-07T12:14:50;2.35;;;1.50;;
55031;SDS011;40928;51.076;7.950;2023-05-07T12:17:15;1.95;;;1.67;;
55031;SDS011;40928;51.076;7.950;2023-05-07T12:19:43;3.42;;;1.95;;
55031;SDS011;40928;51.076;7.950;2023-05-07T12:22:10;3.53;;;1.48;;
55031;SDS011;40928;51.076;7.950;2023-05-07T12:24:46;3.80;;;1.85;;
55031;SDS011;40928;51.076;7.950;2023-05-07T12:27:21;3.33;;;1.60;;
55031;SDS011;40928;51.076;7.950;2023-05-07T12:29:47;2.60;;;1.98;;
55031;SDS011;40928;51.076;7.950;2023-05-07T12:32:14;4.10;;;1.70;;
55031;SDS011;40928;51.076;7.950;2023-05-07T12:34:41;2.90;;;1.92;;
55031;SDS011;40928;51.076;7.950;2023-05-07T12:37:07;5.75;;;2.10;;
55031;SDS011;40928;51.076;7.950;2023-05-07T12:39:33;4.03;;;2.15;;
55031;SDS011;40928;51.076;7.950;2023-05-07T12:41:59;5.25;;;2.10;;
55031;SDS011;40928;51.076;7.950;2023-05-07T12:44:25;5.93;;;2.05;;
55031;SDS011;40928;51.076;7.950;2023-05-07T12:46:55;2.75;;;2.00;;
55031;SDS011;40928;51.076;7.950;2023-05-07T12:49:21;4.55;;;2.25;;
55031;SDS011;40928;51.076;7.950;2023-05-07T12:51:47;4.82;;;2.00;;
55031;SDS011;40928;51.076;7.950;2023-05-07T12:54:14;7.47;;;2.00;;
55031;SDS011;40928;51.076;7.950;2023-05-07T12:56:59;2.22;;;1.73;;
55031;SDS011;40928;51.076;7.950;2023-05-07T12:59:36;5.40;;;1.83;;
55031;SDS011;40928;51.076;7.950;2023-05-07T13:02:04;12.52;;;3.42;;
55031;SDS011;40928;51.076;7.950;2023-05-07T13:04:30;2.80;;;1.80;;
55031;SDS011;40928;51.076;7.950;2023-05-07T13:06:55;5.82;;;1.80;;
55031;SDS011;40928;51.076;7.950;2023-05-07T13:09:21;3.92;;;1.80;;
55031;SDS011;40928;51.076;7.950;2023-05-07T13:11:46;2.33;;;1.77;;
55031;SDS011;40928;51.076;7.950;2023-05-07T13:14:12;3.10;;;1.88;;
55031;SDS011;40928;51.076;7.950;2023-05-07T13:16:37;2.20;;;1.48;;
55031;SDS011;40928;51.076;7.950;2023-05-07T13:19:03;2.05;;;1.30;;
55031;SDS011;40928;51.076;7.950;2023-05-07T13:21:29;2.45;;;1.67;;
55031;SDS011;40928;51.076;7.950;2023-05-07T13:23:57;1.65;;;1.20;;
55031;SDS011;40928;51.076;7.950;2023-05-07T13:26:24;2.30;;;1.20;;
55031;SDS011;40928;51.076;7.950;2023-05-07T13:28:49;1.98;;;0.95;;
55031;SDS011;40928;51.076;7.950;2023-05-07T13:31:16;1.10;;;0.70;;
55031;SDS011;40928;51.076;7.950;2023-05-07T13:33:46;1.23;;;0.70;;
55031;SDS011;40928;51.076;7.950;2023-05-07T13:36:11;3.10;;;0.55;;
55031;SDS011;40928;51.076;7.950;2023-05-07T13:38:37;1.92;;;0.90;;
55031;SDS011;40928;51.076;7.950;2023-05-07T13:41:03;2.70;;;1.25;;
55031;SDS011;40928;51.076;7.950;2023-05-07T13:43:29;1.42;;;0.90;;
55031;SDS011;40928;51.076;7.950;2023-05-07T13:45:55;3.60;;;1.48;;
55031;SDS011;40928;51.076;7.950;2023-05-07T13:48:20;2.85;;;1.50;;
55031;SDS011;40928;51.076;7.950;2023-05-07T13:50:45;3.95;;;2.10;;
55031;SDS011;40928;51.076;7.950;2023-05-07T13:53:11;3.97;;;1.73;;
55031;SDS011;40928;51.076;7.950;2023-05-07T13:55:36;5.43;;;1.83;;
55031;SDS011;40928;51.076;7.950;2023-05-07T13:58:02;2.55;;;1.65;;
55031;SDS011;40928;51.076;7.950;2023-05-07T14:00:28;3.30;;;2.00;;
55031;SDS011;40928;51.076;7.950;2023-05-07T14:02:54;3.63;;;2.47;;
55031;SDS011;40928;51.076;7.950;2023-05-07T14:05:21;2.85;;;1.92;;
55031;SDS011;40928;51.076;7.950;2023-05-07T14:07:51;4.50;;;2.33;;
55031;SDS011;40928;51.076;7.950;2023-05-07T14:10:17;6.32;;;2.60;;
55031;SDS011;40928;51.076;7.950;2023-05-07T14:12:44;5.32;;;3.08;;
55031;SDS011;40928;51.076;7.950;2023-05-07T14:15:12;2.92;;;2.10;;
55031;SDS011;40928;51.076;7.950;2023-05-07T14:17:38;6.97;;;2.30;;
55031;SDS011;40928;51.076;7.950;2023-05-07T14:20:04;5.80;;;2.15;;
55031;SDS011;40928;51.076;7.950;2023-05-07T14:22:32;7.60;;;2.50;;
55031;SDS011;40928;51.076;7.950;2023-05-07T14:24:57;3.42;;;2.38;;
55031;SDS011;40928;51.076;7.950;2023-05-07T14:27:23;5.93;;;2.60;;
55031;SDS011;40928;51.076;7.950;2023-05-07T14:29:48;5.38;;;2.67;;
55031;SDS011;40928;51.076;7.950;2023-05-07T14:32:17;5.43;;;2.92;;
55031;SDS011;40928;51.076;7.950;2023-05-07T14:34:43;5.03;;;3.03;;
55031;SDS011;40928;51.076;7.950;2023-05-07T14:37:09;10.98;;;3.92;;
55031;SDS011;40928;51.076;7.950;2023-05-07T14:39:35;6.25;;;3.00;;
55031;SDS011;40928;51.076;7.950;2023-05-07T14:42:01;6.63;;;3.50;;
55031;SDS011;40928;51.076;7.950;2023-05-07T14:44:26;3.88;;;2.90;;
55031;SDS011;40928;51.076;7.950;2023-05-07T14:46:52;5.72;;;3.45;;
55031;SDS011;40928;51.076;7.950;2023-05-07T14:49:17;8.27;;;3.10;;
55031;SDS011;40928;51.076;7.950;2023-05-07T14:51:46;9.43;;;4.65;;
55031;SDS011;40928;51.076;7.950;2023-05-07T14:54:12;7.88;;;3.08;;
55031;SDS011;40928;51.076;7.950;2023-05-07T14:56:38;4.70;;;3.20;;
55031;SDS011;40928;51.076;7.950;2023-05-07T14:59:05;6.20;;;3.78;;
55031;SDS011;40928;51.076;7.950;2023-05-07T15:01:30;6.68;;;3.20;;
55031;SDS011;40928;51.076;7.950;2023-05-07T15:03:56;7.50;;;3.50;;
55031;SDS011;40928;51.076;7.950;2023-05-07T15:06:22;5.28;;;3.38;;
55031;SDS011;40928;51.076;7.950;2023-05-07T15:08:47;6.53;;;3.72;;
55031;SDS011;40928;51.076;7.950;2023-05-07T15:11:14;7.38;;;3.50;;
55031;SDS011;40928;51.076;7.950;2023-05-07T15:13:41;5.70;;;4.18;;
55031;SDS011;40928;51.076;7.950;2023-05-07T15:16:07;5.25;;;3.63;;